createdAt,value
2022-08-19T06:13:48.177Z,11.50
2022-08-19T06:16:22.887Z,9.90
2022-08-19T06:18:52.629Z,11.20
2022-08-19T06:21:22.796Z,11.00
2022-08-19T06:23:52.318Z,12.60
2022-08-19T06:26:21.538Z,11.20
2022-08-19T06:28:50.693Z,10.70
2022-08-19T06:31:21.286Z,11.60
2022-08-19T06:33:50.357Z,10.30
2022-08-19T06:36:25.261Z,11.30
2022-08-19T06:38:56.075Z,10.80
2022-08-19T06:41:24.562Z,10.10
2022-08-19T06:43:54.171Z,9.70
2022-08-19T06:46:24.860Z,10.70
2022-08-19T06:48:54.736Z,10.40
2022-08-19T06:51:24.517Z,10.80
2022-08-19T06:53:54.922Z,10.60
2022-08-19T06:56:31.402Z,11.10
2022-08-19T06:59:00.491Z,10.30
2022-08-19T07:01:29.314Z,10.90
2022-08-19T07:03:57.655Z,9.90
2022-08-19T07:06:43.587Z,9.90
2022-08-19T07:09:14.899Z,10.40
2022-08-19T07:11:48.637Z,10.10
2022-08-19T07:14:19.980Z,10.30
2022-08-19T07:16:50.650Z,10.40
2022-08-19T07:19:20.332Z,11.00
2022-08-19T07:21:50.511Z,10.20
2022-08-19T07:24:18.998Z,10.00
2022-08-19T07:26:51.805Z,10.60
2022-08-19T07:29:23.445Z,11.00
2022-08-19T07:34:23.543Z,10.50
2022-08-19T07:36:52.953Z,9.90
2022-08-19T07:39:24.125Z,10.80
2022-08-19T07:41:52.891Z,9.90
2022-08-19T07:44:22.586Z,10.70
2022-08-19T07:46:54.180Z,10.90
2022-08-19T07:49:22.886Z,10.80
2022-08-19T07:51:53.538Z,10.80
2022-08-19T07:54:23.662Z,10.60
2022-08-19T07:56:53.089Z,11.40
2022-08-19T07:59:22.445Z,10.60
2022-08-19T08:01:51.769Z,9.90
2022-08-19T08:04:38.785Z,10.70
2022-08-19T08:07:31.596Z,10.10
2022-08-19T08:10:03.185Z,10.10
2022-08-19T08:12:41.615Z,10.40
2022-08-19T08:15:16.686Z,10.30
2022-08-19T08:17:49.513Z,9.90
2022-08-19T08:20:20.913Z,8.90
2022-08-19T08:23:08.173Z,10.50
2022-08-19T08:25:37.749Z,10.70
2022-08-19T08:28:09.694Z,9.90
2022-08-19T08:30:42.103Z,9.20
2022-08-19T08:35:47.759Z,9.60
2022-08-19T08:38:18.546Z,9.50
2022-08-19T08:40:50.258Z,9.40
2022-08-19T08:43:32.180Z,9.30
2022-08-19T08:46:04.942Z,9.10
2022-08-19T08:48:38.925Z,9.50
2022-08-19T08:51:12.922Z,8.70
2022-08-19T08:53:42.152Z,8.70
2022-08-19T08:56:13.463Z,8.90
2022-08-19T08:58:54.365Z,9.20
2022-08-19T09:01:22.960Z,9.70
2022-08-19T09:03:53.272Z,9.00
2022-08-19T09:06:29.620Z,9.40
2022-08-19T09:09:13.906Z,8.80
2022-08-19T09:11:51.820Z,8.80
2022-08-19T09:14:50.257Z,9.40
2022-08-19T09:17:21.346Z,8.80
2022-08-19T09:19:53.666Z,8.80
2022-08-19T09:22:25.439Z,9.30
2022-08-19T09:24:55.478Z,9.70
2022-08-19T09:27:42.476Z,8.70
2022-08-19T09:30:15.984Z,8.80
2022-08-19T09:32:45.718Z,8.90
2022-08-19T09:35:15.845Z,8.10
2022-08-19T09:37:44.987Z,8.20
2022-08-19T09:40:14.159Z,8.50
2022-08-19T09:42:49.935Z,8.00
2022-08-19T09:45:22.137Z,7.40
2022-08-19T09:47:52.311Z,7.50
2022-08-19T09:50:26.095Z,7.30
2022-08-19T09:52:57.322Z,6.70
2022-08-19T09:55:31.670Z,7.90
2022-08-19T09:58:02.242Z,6.80
2022-08-19T10:00:34.987Z,7.10
2022-08-19T10:03:03.528Z,7.10
2022-08-19T10:05:50.230Z,6.70
2022-08-19T10:08:20.988Z,7.40
2022-08-19T10:10:49.534Z,6.80
2022-08-19T10:13:26.186Z,6.60
2022-08-19T10:15:56.229Z,6.60
2022-08-19T10:18:26.350Z,6.90
2022-08-19T10:21:08.213Z,6.80
2022-08-19T10:23:38.531Z,7.40
2022-08-19T10:26:07.613Z,6.40
2022-08-19T10:28:37.757Z,6.90
2022-08-19T10:31:08.723Z,7.60
2022-08-19T10:33:53.618Z,6.00
2022-08-19T10:36:24.589Z,6.90
2022-08-19T10:38:58.458Z,6.50
2022-08-19T10:41:29.413Z,6.50
2022-08-19T10:44:04.416Z,6.80
2022-08-19T10:46:35.153Z,5.90
2022-08-19T10:49:06.971Z,5.50
2022-08-19T10:51:54.642Z,6.20
2022-08-19T10:54:33.312Z,6.00
2022-08-19T10:57:03.039Z,6.30
2022-08-19T10:59:35.861Z,6.40
2022-08-19T11:02:10.258Z,5.60
2022-08-19T11:04:39.032Z,6.10
2022-08-19T11:07:08.760Z,6.80
2022-08-19T11:09:40.331Z,5.90
2022-08-19T11:12:09.983Z,6.30
2022-08-19T11:14:41.171Z,6.10
2022-08-19T11:17:11.362Z,5.70
2022-08-19T11:19:39.818Z,5.90
2022-08-19T11:22:10.514Z,6.20
2022-08-19T11:24:43.129Z,6.00
2022-08-19T11:27:11.895Z,6.70
2022-08-19T11:29:40.501Z,6.40
2022-08-19T11:32:10.806Z,5.40
2022-08-19T11:34:40.062Z,5.80
2022-08-19T11:37:09.336Z,5.50
2022-08-19T11:39:38.415Z,5.80
2022-08-19T11:42:22.686Z,5.90
2022-08-19T11:44:51.179Z,5.50
2022-08-19T11:47:19.709Z,5.40
2022-08-19T11:49:50.492Z,5.70
2022-08-19T11:52:18.900Z,5.20
2022-08-19T11:54:47.485Z,6.00
2022-08-19T11:57:17.566Z,5.40
2022-08-19T11:59:50.952Z,5.30
2022-08-19T12:02:19.951Z,5.20
2022-08-19T12:04:48.268Z,4.90
2022-08-19T12:07:16.711Z,4.80
2022-08-19T12:09:45.021Z,5.20
2022-08-19T12:12:14.558Z,6.60
2022-08-19T12:14:42.967Z,5.80
2022-08-19T12:17:12.004Z,5.40
2022-08-19T12:19:40.385Z,5.30
2022-08-19T12:22:09.530Z,5.20
2022-08-19T12:24:38.229Z,5.00
2022-08-19T12:27:06.442Z,5.50
2022-08-19T12:29:42.131Z,5.20
2022-08-19T12:32:12.143Z,5.50
2022-08-19T12:34:41.776Z,5.70
2022-08-19T12:37:11.738Z,5.50
2022-08-19T12:39:42.165Z,5.20
2022-08-19T12:42:11.204Z,5.20
2022-08-19T12:44:41.607Z,6.20
2022-08-19T12:47:11.791Z,5.10
2022-08-19T12:49:53.122Z,5.50
2022-08-19T12:54:54.319Z,5.40
2022-08-19T12:57:31.732Z,5.00
2022-08-19T13:00:01.949Z,5.00
2022-08-19T13:02:38.887Z,5.30
2022-08-19T13:05:11.701Z,5.00
2022-08-19T13:07:41.482Z,5.20
2022-08-19T13:10:18.439Z,5.10
2022-08-19T13:12:48.918Z,4.90
2022-08-19T13:15:23.717Z,5.10
2022-08-19T13:17:56.009Z,4.50
2022-08-19T13:20:25.225Z,5.00
2022-08-19T13:22:53.633Z,4.90
2022-08-19T13:25:22.515Z,5.10
2022-08-19T13:27:52.396Z,4.70
2022-08-19T13:30:40.566Z,4.90
2022-08-19T13:33:16.130Z,5.20
2022-08-19T13:35:47.588Z,4.60
2022-08-19T13:38:16.961Z,4.80
2022-08-19T13:40:47.539Z,5.90
2022-08-19T13:43:22.772Z,4.50
2022-08-19T13:45:55.721Z,5.20
2022-08-19T13:48:25.421Z,4.80
2022-08-19T13:50:54.615Z,5.00
2022-08-19T13:53:23.513Z,4.90
2022-08-19T13:55:53.973Z,4.50
2022-08-19T13:58:23.089Z,4.40
2022-08-19T14:00:51.443Z,4.30
2022-08-19T14:03:20.130Z,4.10
2022-08-19T14:05:48.581Z,4.40
2022-08-19T14:08:16.889Z,5.50
2022-08-19T14:10:45.879Z,4.10
2022-08-19T14:13:17.670Z,4.20
2022-08-19T14:15:47.775Z,5.20
2022-08-19T14:18:16.234Z,4.60
2022-08-19T14:20:44.641Z,4.00
2022-08-19T14:23:14.199Z,4.70
2022-08-19T14:25:42.502Z,5.30
2022-08-19T14:28:10.742Z,3.90
2022-08-19T14:30:40.081Z,4.20
2022-08-19T14:33:09.243Z,3.90
2022-08-19T14:35:37.964Z,4.30
2022-08-19T14:38:07.675Z,4.20
2022-08-19T14:40:35.917Z,4.50
2022-08-19T14:43:05.592Z,4.40
2022-08-19T14:45:36.562Z,3.40
2022-08-19T14:48:05.488Z,4.40
2022-08-19T14:50:34.152Z,3.70
2022-08-19T14:53:07.964Z,4.40
2022-08-19T14:55:43.437Z,4.40
2022-08-19T14:58:29.639Z,4.20
2022-08-19T15:01:00.370Z,4.20
2022-08-19T15:03:29.977Z,4.00
2022-08-19T15:05:58.280Z,3.90
2022-08-19T15:08:27.508Z,4.20
2022-08-19T15:10:56.687Z,4.20
2022-08-19T15:13:25.695Z,3.70
2022-08-19T15:15:54.385Z,4.10
2022-08-19T15:18:22.922Z,4.00
2022-08-19T15:20:51.594Z,5.00
2022-08-19T15:23:21.238Z,4.50
2022-08-19T15:25:52.462Z,4.10
2022-08-19T15:28:20.673Z,4.30
2022-08-19T15:30:50.445Z,4.40
2022-08-19T15:33:20.185Z,4.10
2022-08-19T15:35:51.091Z,4.40
2022-08-19T15:38:21.745Z,4.10
2022-08-19T15:40:50.723Z,4.50
2022-08-19T15:43:21.162Z,4.50
2022-08-19T15:45:50.718Z,4.10
2022-08-19T15:48:19.252Z,3.40
2022-08-19T15:50:47.646Z,3.90
2022-08-19T15:53:16.943Z,3.90
2022-08-19T15:55:47.899Z,4.30
2022-08-19T15:58:35.124Z,4.50
2022-08-19T16:01:27.016Z,4.10
2022-08-19T16:04:16.336Z,3.80
2022-08-19T16:06:46.777Z,3.90
2022-08-19T16:09:15.821Z,4.00
2022-08-19T16:11:46.302Z,4.50
2022-08-19T16:14:15.941Z,4.20
2022-08-19T16:16:46.169Z,4.10
2022-08-19T16:19:16.793Z,4.30
2022-08-19T16:21:46.874Z,3.90
2022-08-19T16:24:17.231Z,3.50
2022-08-19T16:26:46.227Z,3.90
2022-08-19T16:29:33.248Z,3.90
2022-08-19T16:32:02.778Z,3.90
2022-08-19T16:34:31.698Z,4.00
2022-08-19T16:37:02.030Z,4.80
2022-08-19T16:39:30.547Z,4.20
2022-08-19T16:41:59.533Z,4.30
2022-08-19T16:44:29.713Z,4.00
2022-08-19T16:46:59.681Z,4.30
2022-08-19T16:49:53.387Z,4.20
2022-08-19T16:52:19.408Z,4.00
2022-08-19T16:54:48.193Z,3.90
2022-08-19T16:57:16.533Z,4.10
2022-08-19T16:59:49.250Z,4.40
2022-08-19T17:02:19.281Z,4.60
2022-08-19T17:04:58.066Z,4.00
2022-08-19T17:07:27.872Z,4.70
2022-08-19T17:09:56.389Z,4.00
2022-08-19T17:12:31.580Z,4.20
2022-08-19T17:15:02.167Z,4.00
2022-08-19T17:17:31.089Z,4.70
2022-08-19T17:20:00.124Z,4.90
2022-08-19T17:22:28.548Z,4.80
2022-08-19T17:24:58.124Z,4.40
2022-08-19T17:27:32.485Z,4.30
2022-08-19T17:30:02.112Z,4.30
2022-08-19T17:32:33.744Z,4.00
2022-08-19T17:35:03.965Z,4.50
2022-08-19T17:37:33.598Z,4.30
2022-08-19T17:40:03.641Z,4.00
2022-08-19T17:42:32.179Z,4.60
2022-08-19T17:45:00.524Z,4.50
2022-08-19T17:47:29.256Z,4.40
2022-08-19T17:49:58.210Z,4.20
2022-08-19T17:52:27.062Z,4.20
2022-08-19T17:54:55.898Z,4.70
2022-08-19T17:57:24.311Z,4.50
2022-08-19T17:59:52.852Z,5.20
2022-08-19T18:02:21.930Z,4.70
2022-08-19T18:04:51.172Z,4.90
2022-08-19T18:07:21.052Z,4.90
2022-08-19T18:09:52.650Z,4.90
2022-08-19T18:12:24.386Z,4.50
2022-08-19T18:14:52.921Z,4.90
2022-08-19T18:17:22.775Z,5.40
2022-08-19T18:19:51.270Z,5.80
2022-08-19T18:22:26.092Z,5.30
2022-08-19T18:24:54.906Z,5.30
2022-08-19T18:27:23.654Z,4.80
2022-08-19T18:29:54.010Z,5.30
2022-08-19T18:32:25.170Z,5.60
2022-08-19T18:34:54.361Z,5.00
2022-08-19T18:37:25.400Z,5.10
2022-08-19T18:40:12.039Z,5.80
2022-08-19T18:43:01.529Z,6.00
2022-08-19T18:45:48.346Z,5.60
2022-08-19T18:48:46.160Z,4.90
2022-08-19T18:51:15.671Z,4.80
2022-08-19T18:53:46.501Z,5.60
2022-08-19T18:56:17.322Z,5.90
2022-08-19T18:58:45.908Z,5.70
2022-08-19T19:01:17.254Z,5.70
2022-08-19T19:03:48.676Z,4.80
2022-08-19T19:06:21.344Z,5.00
2022-08-19T19:08:50.904Z,5.20
2022-08-19T19:11:24.336Z,4.70
2022-08-19T19:16:24.443Z,5.40
2022-08-19T19:18:53.135Z,5.20
2022-08-19T19:21:24.063Z,4.30
2022-08-19T19:23:53.507Z,4.70
2022-08-19T19:26:22.744Z,4.90
2022-08-19T19:28:51.135Z,5.50
2022-08-19T19:31:22.599Z,5.10
2022-08-19T19:33:51.287Z,5.20
2022-08-19T19:36:19.630Z,4.40
2022-08-19T19:38:49.025Z,5.30
2022-08-19T19:41:22.813Z,5.20
2022-08-19T19:44:09.862Z,5.00
2022-08-19T19:46:42.393Z,5.70
2022-08-19T19:49:11.019Z,4.80
2022-08-19T19:51:39.845Z,5.10
2022-08-19T19:54:13.102Z,5.10
2022-08-19T19:56:44.825Z,9.90
2022-08-19T19:59:13.178Z,5.10
2022-08-19T20:01:45.657Z,5.10
2022-08-19T20:04:14.335Z,5.30
2022-08-19T20:06:43.510Z,5.10
2022-08-19T20:09:16.295Z,5.40
2022-08-19T20:11:49.345Z,5.30
2022-08-19T20:14:24.279Z,4.90
2022-08-19T20:16:54.295Z,5.70
2022-08-19T20:19:25.923Z,5.30
2022-08-19T20:21:56.738Z,5.10
2022-08-19T20:24:28.154Z,5.00
2022-08-19T20:26:56.615Z,5.40
2022-08-19T20:29:38.969Z,4.80
2022-08-19T20:32:10.598Z,5.60
2022-08-19T20:34:39.902Z,5.00
2022-08-19T20:37:08.605Z,5.80
2022-08-19T20:39:37.353Z,5.70
2022-08-19T20:42:06.518Z,5.80
2022-08-19T20:44:35.143Z,6.20
2022-08-19T20:47:04.273Z,6.00
2022-08-19T20:49:32.799Z,5.80
2022-08-19T20:52:01.815Z,4.90
2022-08-19T20:54:31.501Z,5.90
2022-08-19T20:57:02.197Z,5.40
2022-08-19T20:59:30.609Z,5.70
2022-08-19T21:01:59.089Z,5.10
2022-08-19T21:04:27.448Z,5.30
2022-08-19T21:06:55.971Z,5.10
2022-08-19T21:09:24.549Z,5.30
2022-08-19T21:11:53.125Z,5.10
2022-08-19T21:14:22.221Z,4.90
2022-08-19T21:16:50.530Z,5.70
2022-08-19T21:19:23.693Z,5.00
2022-08-19T21:21:53.129Z,4.70
2022-08-19T21:24:21.474Z,5.90
2022-08-19T21:26:54.944Z,5.60
2022-08-19T21:29:23.191Z,5.10
2022-08-19T21:31:51.490Z,5.50
2022-08-19T21:34:19.992Z,5.50
2022-08-19T21:36:48.563Z,5.20
2022-08-19T21:39:16.873Z,5.00
2022-08-19T21:41:45.592Z,5.90
2022-08-19T21:44:16.099Z,5.40
2022-08-19T21:46:44.855Z,5.80
2022-08-19T21:49:19.995Z,5.10
2022-08-19T21:51:48.268Z,5.50
2022-08-19T21:54:16.600Z,4.90
2022-08-19T21:56:45.014Z,5.20
2022-08-19T21:59:13.307Z,5.80
2022-08-19T22:01:46.011Z,5.00
2022-08-19T22:04:17.389Z,5.60
2022-08-19T22:06:46.294Z,6.10
2022-08-19T22:09:14.647Z,6.30
2022-08-19T22:11:44.102Z,5.20
2022-08-19T22:14:12.399Z,5.10
2022-08-19T22:16:41.504Z,5.50
2022-08-19T22:19:10.132Z,6.10
2022-08-19T22:21:40.300Z,5.30
2022-08-19T22:24:09.914Z,5.60
2022-08-19T22:26:38.622Z,5.70
2022-08-19T22:29:06.952Z,5.30
2022-08-19T22:31:36.926Z,5.60
2022-08-19T22:34:06.069Z,5.60
2022-08-19T22:36:35.118Z,6.00
2022-08-19T22:39:04.213Z,5.60
2022-08-19T22:41:33.671Z,5.20
2022-08-19T22:44:03.251Z,5.30
2022-08-19T22:46:33.853Z,4.90
2022-08-19T22:49:02.188Z,6.40
2022-08-19T22:51:49.106Z,5.50
2022-08-19T22:54:19.656Z,5.70
2022-08-19T22:56:51.405Z,5.80
2022-08-19T22:59:19.821Z,5.60
2022-08-19T23:01:48.175Z,5.30
2022-08-19T23:04:17.079Z,5.30
2022-08-19T23:06:45.407Z,5.10
2022-08-19T23:09:16.718Z,5.00
2022-08-19T23:11:46.627Z,5.40
2022-08-19T23:14:16.314Z,5.50
2022-08-19T23:16:50.427Z,5.60
2022-08-19T23:19:20.654Z,6.70
2022-08-19T23:21:49.682Z,6.00
2022-08-19T23:24:17.916Z,5.00
2022-08-19T23:27:01.029Z,5.20
2022-08-19T23:29:49.986Z,5.90
2022-08-19T23:32:18.886Z,5.70
2022-08-19T23:34:47.811Z,6.20
2022-08-19T23:37:16.242Z,5.50
2022-08-19T23:39:45.255Z,5.00
2022-08-19T23:42:14.076Z,5.90
2022-08-19T23:44:51.485Z,5.90
2022-08-19T23:47:21.042Z,5.40
2022-08-19T23:49:50.094Z,5.10
2022-08-19T23:52:18.476Z,5.00
2022-08-19T23:54:47.200Z,4.50
2022-08-19T23:57:15.482Z,5.50
2022-08-19T23:59:44.819Z,5.30
